createdAt,value
2018-11-11T00:00:19.886Z,97648.42
2018-11-11T00:02:50.256Z,97628.06
2018-11-11T00:05:20.435Z,97641.05
2018-11-11T00:07:50.055Z,97645.17
2018-11-11T00:10:19.648Z,97650.03
2018-11-11T00:12:49.152Z,97646.86
2018-11-11T00:15:18.831Z,97645.16
2018-11-11T00:17:48.879Z,97655.28
2018-11-11T00:20:18.382Z,97660.01
2018-11-11T00:22:47.616Z,97663.06
2018-11-11T00:25:16.947Z,97662.25
2018-11-11T00:27:46.310Z,97656.31
2018-11-11T00:30:17.014Z,97648.45
2018-11-11T00:32:46.310Z,97649.79
2018-11-11T00:35:15.669Z,97638.84
2018-11-11T00:37:45.116Z,97633.25
2018-11-11T00:40:15.522Z,97634.69
2018-11-11T00:42:45.354Z,97630.34
2018-11-11T00:45:15.542Z,97632.89
2018-11-11T00:47:45.593Z,97629.03
2018-11-11T00:50:15.120Z,97626.98
2018-11-11T00:52:44.505Z,97637.02
2018-11-11T00:55:15.415Z,97641.61
2018-11-11T00:57:45.148Z,97642.42
2018-11-11T01:00:15.979Z,97640.78
2018-11-11T01:02:45.961Z,97647.00
2018-11-11T01:05:15.910Z,97651.75
2018-11-11T01:07:45.415Z,97656.86
2018-11-11T01:10:16.117Z,97670.42
2018-11-11T01:12:46.231Z,97681.42
2018-11-11T01:15:16.609Z,97684.20
2018-11-11T01:17:46.143Z,97681.30
2018-11-11T01:20:17.850Z,97624.98
2018-11-11T01:22:47.559Z,97673.66
2018-11-11T01:25:18.144Z,97682.16
2018-11-11T01:27:47.589Z,97676.23
2018-11-11T01:30:16.996Z,97683.52
2018-11-11T01:32:46.298Z,97691.41
2018-11-11T01:35:16.693Z,97684.37
2018-11-11T01:37:46.323Z,97688.02
2018-11-11T01:40:15.932Z,97682.59
2018-11-11T01:42:45.318Z,97684.87
2018-11-11T01:45:19.444Z,97686.54
2018-11-11T01:47:49.680Z,97691.95
2018-11-11T01:50:19.027Z,97697.52
2018-11-11T01:52:48.468Z,97699.72
2018-11-11T01:55:18.046Z,97697.99
2018-11-11T01:57:47.379Z,97712.08
2018-11-11T02:00:18.110Z,97725.62
2018-11-11T02:02:48.328Z,97718.52
2018-11-11T02:05:17.832Z,97714.95
2018-11-11T02:07:48.666Z,97717.38
2018-11-11T02:10:18.070Z,97708.03
2018-11-11T02:12:47.880Z,97699.04
2018-11-11T02:15:18.280Z,97694.13
2018-11-11T02:17:47.640Z,97707.95
2018-11-11T02:20:18.292Z,97711.89
2018-11-11T02:22:48.753Z,97708.95
2018-11-11T02:25:18.013Z,97700.06
2018-11-11T02:27:47.521Z,97703.27
2018-11-11T02:30:18.990Z,97700.25
2018-11-11T02:32:48.523Z,97694.81
2018-11-11T02:35:18.334Z,97705.25
2018-11-11T02:37:47.837Z,97695.58
2018-11-11T02:40:18.477Z,97691.85
2018-11-11T02:42:48.496Z,97684.05
2018-11-11T02:45:18.891Z,97678.84
2018-11-11T02:47:48.210Z,97682.63
2018-11-11T02:50:18.636Z,97686.63
2018-11-11T02:52:48.140Z,97692.00
2018-11-11T02:55:18.191Z,97693.50
2018-11-11T02:57:48.071Z,97694.33
2018-11-11T03:00:18.886Z,97697.47
2018-11-11T03:02:48.512Z,97694.64
2018-11-11T03:05:18.690Z,97699.53
2018-11-11T03:07:48.136Z,97696.61
2018-11-11T03:10:17.938Z,97703.66
2018-11-11T03:12:48.375Z,97694.56
2018-11-11T03:15:18.083Z,97689.91
2018-11-11T03:17:47.381Z,97695.09
2018-11-11T03:20:17.471Z,97688.73
2018-11-11T03:22:46.799Z,97689.32
2018-11-11T03:25:17.180Z,97699.97
2018-11-11T03:27:46.527Z,97707.36
2018-11-11T03:30:17.269Z,97705.70
2018-11-11T03:32:46.966Z,97709.61
2018-11-11T03:35:16.582Z,97696.90
2018-11-11T03:37:46.797Z,97703.17
2018-11-11T03:40:17.518Z,97707.44
2018-11-11T03:42:47.440Z,97718.28
2018-11-11T03:45:18.277Z,97727.04
2018-11-11T03:47:48.705Z,97725.41
2018-11-11T03:50:18.333Z,97729.49
2018-11-11T03:52:47.919Z,97732.84
2018-11-11T03:55:17.552Z,97727.58
2018-11-11T03:57:47.024Z,97726.16
2018-11-11T04:00:17.039Z,97715.57
2018-11-11T04:02:46.447Z,97723.13
2018-11-11T04:05:17.488Z,97721.23
2018-11-11T04:07:46.922Z,97732.44
2018-11-11T04:10:17.786Z,97737.91
2018-11-11T04:12:47.532Z,97744.31
2018-11-11T04:15:18.246Z,97751.61
2018-11-11T04:17:48.081Z,97755.78
2018-11-11T04:20:18.792Z,97756.86
2018-11-11T04:22:48.317Z,97749.81
2018-11-11T04:25:18.578Z,97753.95
2018-11-11T04:27:48.039Z,97739.45
2018-11-11T04:30:17.555Z,97743.70
2018-11-11T04:32:47.025Z,97739.84
2018-11-11T04:35:16.356Z,97733.56
2018-11-11T04:37:46.055Z,97725.12
2018-11-11T04:40:15.561Z,97711.16
2018-11-11T04:42:45.066Z,97718.59
2018-11-11T04:45:15.543Z,97731.69
2018-11-11T04:47:45.712Z,97719.10
2018-11-11T04:50:16.437Z,97726.23
2018-11-11T04:52:46.567Z,97722.97
2018-11-11T04:55:15.960Z,97722.45
2018-11-11T04:57:45.367Z,97714.66
2018-11-11T05:00:15.586Z,97725.16
2018-11-11T05:02:45.091Z,97721.87
2018-11-11T05:05:14.991Z,97714.13
2018-11-11T05:07:44.517Z,97707.84
2018-11-11T05:10:14.627Z,97709.55
2018-11-11T05:12:43.948Z,97712.79
2018-11-11T05:15:14.250Z,97704.47
2018-11-11T05:17:44.164Z,97700.59
2018-11-11T05:20:14.084Z,97701.33
2018-11-11T05:22:44.041Z,97691.77
2018-11-11T05:25:14.702Z,97693.48
2018-11-11T05:27:44.636Z,97693.58
2018-11-11T05:30:14.968Z,97706.77
2018-11-11T05:32:44.363Z,97706.86
2018-11-11T05:35:14.175Z,97702.24
2018-11-11T05:37:43.895Z,97709.52
2018-11-11T05:40:14.002Z,97705.57
2018-11-11T05:42:44.072Z,97703.80
2018-11-11T05:45:14.558Z,97720.06
2018-11-11T05:47:44.308Z,97712.92
2018-11-11T05:50:14.850Z,97718.80
2018-11-11T05:52:45.319Z,97705.13
2018-11-11T05:55:14.865Z,97699.44
2018-11-11T05:57:44.230Z,97707.41
2018-11-11T06:00:14.746Z,97711.00
2018-11-11T06:02:44.562Z,97713.13
2018-11-11T06:05:14.790Z,97702.54
2018-11-11T06:07:44.179Z,97716.67
2018-11-11T06:10:14.707Z,97722.27
2018-11-11T06:12:44.211Z,97714.48
2018-11-11T06:15:14.384Z,97710.40
2018-11-11T06:17:43.836Z,97714.66
2018-11-11T06:20:15.370Z,97716.58
2018-11-11T06:22:44.995Z,97727.03
2018-11-11T06:25:14.395Z,97710.25
2018-11-11T06:27:44.077Z,97719.18
2018-11-11T06:30:14.058Z,97723.47
2018-11-11T06:32:43.422Z,97742.12
2018-11-11T06:35:12.925Z,97742.75
2018-11-11T06:37:42.530Z,97750.39
2018-11-11T06:40:13.104Z,97760.89
2018-11-11T06:42:42.852Z,97768.20
2018-11-11T06:45:13.429Z,97755.02
2018-11-11T06:47:43.618Z,97751.34
2018-11-11T06:50:14.046Z,97753.80
2018-11-11T06:52:44.163Z,97763.24
2018-11-11T06:55:14.035Z,97753.84
2018-11-11T06:57:43.308Z,97773.05
2018-11-11T07:00:14.452Z,97790.72
2018-11-11T07:02:55.086Z,97802.80
2018-11-11T07:05:24.485Z,97811.91
2018-11-11T07:07:53.784Z,97814.52
2018-11-11T07:10:23.296Z,97822.19
2018-11-11T07:12:52.692Z,97813.59
2018-11-11T07:15:22.095Z,97820.71
2018-11-11T07:17:51.699Z,97817.44
2018-11-11T07:20:21.098Z,97815.31
2018-11-11T07:22:50.605Z,97809.70
2018-11-11T07:25:20.183Z,97809.80
2018-11-11T07:27:49.551Z,97846.36
2018-11-11T07:30:19.018Z,97819.92
2018-11-11T07:32:48.624Z,97817.47
2018-11-11T07:35:18.211Z,97811.94
2018-11-11T07:37:47.802Z,97827.16
2018-11-11T07:40:17.748Z,97839.98
2018-11-11T07:42:47.027Z,97846.28
2018-11-11T07:45:16.317Z,97851.72
2018-11-11T07:47:45.779Z,97853.11
2018-11-11T07:50:15.028Z,97859.52
2018-11-11T07:52:44.550Z,97860.55
2018-11-11T07:55:13.899Z,97867.63
2018-11-11T07:57:43.363Z,97873.72
2018-11-11T08:00:14.162Z,97879.56
2018-11-11T08:02:44.104Z,97882.50
2018-11-11T08:05:13.613Z,97887.16
2018-11-11T08:07:42.906Z,97883.39
2018-11-11T08:10:23.881Z,97898.27
2018-11-11T08:12:53.108Z,97894.50
2018-11-11T08:15:22.784Z,97912.41
2018-11-11T08:17:52.292Z,97909.89
2018-11-11T08:20:21.694Z,97908.89
2018-11-11T08:22:51.196Z,97918.88
2018-11-11T08:25:20.846Z,97914.88
2018-11-11T08:27:50.084Z,97920.29
2018-11-11T08:30:19.287Z,97911.38
2018-11-11T08:32:48.702Z,97917.48
2018-11-11T08:35:18.824Z,97907.63
2018-11-11T08:37:48.222Z,97871.12
2018-11-11T08:40:18.571Z,97862.66
2018-11-11T08:42:47.890Z,97890.63
2018-11-11T08:45:17.861Z,97878.73
2018-11-11T08:47:47.161Z,97874.94
2018-11-11T08:50:16.562Z,97861.77
2018-11-11T08:52:46.826Z,97861.28
2018-11-11T08:55:16.190Z,97866.17
2018-11-11T08:57:45.856Z,97878.56
2018-11-11T09:00:15.812Z,97884.59
2018-11-11T09:02:45.051Z,97886.19
2018-11-11T09:05:14.555Z,97889.03
2018-11-11T09:07:43.911Z,97887.53
2018-11-11T09:10:13.619Z,97885.11
2018-11-11T09:12:42.913Z,97892.91
2018-11-11T09:15:14.143Z,97888.04
2018-11-11T09:17:43.969Z,97890.50
2018-11-11T09:20:14.970Z,97877.45
2018-11-11T09:22:44.624Z,97872.80
2018-11-11T09:25:14.034Z,97871.81
2018-11-11T09:27:43.839Z,97872.55
2018-11-11T09:30:14.560Z,97877.31
2018-11-11T09:32:44.280Z,97878.00
2018-11-11T09:35:13.816Z,97877.60
2018-11-11T09:37:43.354Z,97866.30
2018-11-11T09:40:13.621Z,97870.05
2018-11-11T09:42:43.716Z,97871.57
2018-11-11T09:45:14.477Z,97868.17
2018-11-11T09:47:44.565Z,97856.70
2018-11-11T09:50:16.236Z,97854.05
2018-11-11T09:52:45.832Z,97865.23
2018-11-11T09:55:15.754Z,97867.27
2018-11-11T09:57:44.985Z,97856.67
2018-11-11T10:00:17.529Z,97858.69
2018-11-11T10:02:54.097Z,97856.12
2018-11-11T10:05:30.463Z,97853.57
2018-11-11T10:08:04.076Z,97843.78
2018-11-11T10:10:41.251Z,97845.08
2018-11-11T10:13:16.803Z,97844.68
2018-11-11T10:17:55.936Z,97843.02
2018-11-11T10:20:32.660Z,97860.53
2018-11-11T10:24:08.472Z,97855.90
2018-11-11T10:27:41.972Z,97873.85
2018-11-11T10:30:17.242Z,97883.38
2018-11-11T10:33:03.513Z,97895.83
2018-11-11T10:36:35.885Z,97897.08
2018-11-11T10:39:09.004Z,97900.54
2018-11-11T10:41:48.311Z,97915.58
2018-11-11T10:44:21.611Z,97899.96
2018-11-11T10:47:07.285Z,97900.45
2018-11-11T10:49:45.349Z,97900.45
2018-11-11T10:52:14.836Z,97898.37
2018-11-11T10:54:44.299Z,97891.77
2018-11-11T10:57:13.799Z,97890.47
2018-11-11T10:59:43.202Z,97903.97
2018-11-11T11:02:17.647Z,97894.31
2018-11-11T11:04:52.304Z,97883.00
2018-11-11T11:07:21.646Z,97884.49
2018-11-11T11:09:50.914Z,97876.41
2018-11-11T11:12:20.351Z,97867.80
2018-11-11T11:14:49.751Z,97865.68
2018-11-11T11:17:19.359Z,97847.73
2018-11-11T11:19:48.651Z,97854.20
2018-11-11T11:22:18.058Z,97864.90
2018-11-11T11:24:47.463Z,97856.44
2018-11-11T11:27:16.933Z,97858.45
2018-11-11T11:29:46.366Z,97865.67
2018-11-11T11:32:15.813Z,97869.52
2018-11-11T11:34:45.175Z,97868.86
2018-11-11T11:37:14.590Z,97870.22
2018-11-11T11:39:43.969Z,97856.80
2018-11-11T11:42:13.210Z,97866.06
2018-11-11T11:44:42.673Z,97855.34
2018-11-11T11:47:12.098Z,97859.17
2018-11-11T11:49:41.580Z,97865.13
2018-11-11T11:52:11.118Z,97866.06
2018-11-11T11:54:40.486Z,97857.02
2018-11-11T11:57:10.094Z,97859.59
2018-11-11T11:59:39.698Z,97869.48
2018-11-11T12:02:09.079Z,97881.20
2018-11-11T12:04:38.505Z,97890.09
2018-11-11T12:07:08.008Z,97893.83
2018-11-11T12:09:37.512Z,97898.30
2018-11-11T12:12:07.177Z,97901.34
2018-11-11T12:14:36.523Z,97899.88
2018-11-11T12:17:06.625Z,97908.98
2018-11-11T12:19:36.041Z,97908.02
2018-11-11T12:22:05.923Z,97900.31
2018-11-11T12:24:35.254Z,97909.61
2018-11-11T12:27:04.763Z,97906.65
2018-11-11T12:29:34.478Z,97923.16
2018-11-11T12:32:04.382Z,97902.70
2018-11-11T12:34:33.885Z,97919.93
2018-11-11T12:37:03.145Z,97917.20
2018-11-11T12:39:32.661Z,97928.38
2018-11-11T12:42:16.241Z,97938.66
2018-11-11T12:44:59.472Z,97937.84
2018-11-11T12:47:32.536Z,97949.72
2018-11-11T12:50:01.876Z,97932.48
2018-11-11T12:52:31.249Z,97927.89
2018-11-11T12:55:00.745Z,97934.19
2018-11-11T12:57:29.936Z,97919.11
2018-11-11T12:59:59.342Z,97918.44
2018-11-11T13:02:28.847Z,97915.56
2018-11-11T13:04:58.309Z,97914.73
2018-11-11T13:07:27.756Z,97921.40
2018-11-11T13:09:57.156Z,97913.44
2018-11-11T13:12:26.988Z,97916.95
2018-11-11T13:14:56.423Z,97921.91
2018-11-11T13:17:25.972Z,97927.80
2018-11-11T13:19:55.295Z,97940.91
2018-11-11T13:22:25.093Z,97936.05
2018-11-11T13:24:54.572Z,97948.00
2018-11-11T13:27:24.230Z,97951.52
2018-11-11T13:29:53.600Z,97948.27
2018-11-11T13:32:23.102Z,97942.69
2018-11-11T13:34:52.353Z,97942.84
2018-11-11T13:37:21.815Z,97944.73
2018-11-11T13:39:51.300Z,97947.34
2018-11-11T13:42:20.714Z,97950.95
2018-11-11T13:44:50.108Z,97957.28
2018-11-11T13:47:19.620Z,97957.42
2018-11-11T13:49:49.014Z,97963.34
2018-11-11T13:52:18.657Z,97968.47
2018-11-11T13:54:48.007Z,97977.65
2018-11-11T13:57:17.321Z,97975.03
2018-11-11T13:59:46.811Z,97979.47
2018-11-11T14:02:16.244Z,97982.11
2018-11-11T14:04:45.737Z,97983.19
2018-11-11T14:07:15.313Z,97972.72
2018-11-11T14:09:44.693Z,97979.73
2018-11-11T14:12:14.038Z,97774.23
2018-11-11T14:14:43.442Z,97978.70
2018-11-11T14:17:13.049Z,97980.88
2018-11-11T14:19:42.685Z,97977.86
2018-11-11T14:22:12.160Z,97978.74
2018-11-11T14:24:41.899Z,97979.83
2018-11-11T14:27:11.271Z,97971.23
2018-11-11T14:29:40.671Z,97973.03
2018-11-11T14:32:10.146Z,97967.82
2018-11-11T14:34:39.478Z,97964.85
2018-11-11T14:37:08.981Z,97967.31
2018-11-11T14:39:38.523Z,97965.73
2018-11-11T14:42:07.905Z,97963.52
2018-11-11T14:44:37.416Z,97962.59
2018-11-11T14:47:06.952Z,97962.09
2018-11-11T14:49:36.404Z,97956.17
2018-11-11T14:52:09.183Z,97955.38
2018-11-11T14:54:38.583Z,97957.09
2018-11-11T14:57:07.986Z,97959.64
2018-11-11T14:59:37.426Z,97950.53
2018-11-11T15:02:06.858Z,97955.85
2018-11-11T15:04:36.264Z,97960.32
2018-11-11T15:07:05.797Z,97955.84
2018-11-11T15:09:35.198Z,97955.88
2018-11-11T15:12:04.703Z,97960.11
2018-11-11T15:14:34.115Z,97949.59
2018-11-11T15:17:03.610Z,97958.02
2018-11-11T15:19:33.177Z,97955.37
2018-11-11T15:22:02.408Z,97949.55
2018-11-11T15:24:31.816Z,97952.48
2018-11-11T15:27:01.778Z,97948.87
2018-11-11T15:29:31.395Z,97947.81
2018-11-11T15:32:00.840Z,97966.19
2018-11-11T15:34:30.344Z,97948.38
2018-11-11T15:36:59.739Z,97949.46
2018-11-11T15:39:29.145Z,97945.45
2018-11-11T15:41:58.549Z,97938.30
2018-11-11T15:44:27.845Z,97945.20
2018-11-11T15:46:57.250Z,97938.84
2018-11-11T15:49:27.049Z,97944.59
2018-11-11T15:51:56.367Z,97953.21
2018-11-11T15:54:25.814Z,97948.39
2018-11-11T15:56:55.163Z,97779.05
2018-11-11T15:59:24.592Z,97958.83
2018-11-11T16:01:54.072Z,97965.84
2018-11-11T16:04:23.467Z,97966.25
2018-11-11T16:06:52.875Z,97968.50
2018-11-11T16:09:22.200Z,97970.42
2018-11-11T16:11:52.818Z,97965.32
2018-11-11T16:14:22.317Z,97972.23
2018-11-11T16:16:51.812Z,97973.84
2018-11-11T16:19:21.477Z,97980.68
2018-11-11T16:21:50.987Z,97985.14
2018-11-11T16:24:20.429Z,97984.25
2018-11-11T16:26:49.829Z,97993.53
2018-11-11T16:29:19.179Z,98007.47
2018-11-11T16:31:48.691Z,98016.18
2018-11-11T16:34:18.245Z,98006.61
2018-11-11T16:36:47.682Z,98008.35
2018-11-11T16:39:17.175Z,98012.30
2018-11-11T16:41:46.883Z,98016.20
2018-11-11T16:44:16.194Z,98031.41
2018-11-11T16:46:45.871Z,98027.16
2018-11-11T16:49:15.580Z,98040.23
2018-11-11T16:51:45.388Z,98041.84
2018-11-11T16:54:14.861Z,98031.19
2018-11-11T16:56:44.183Z,98022.13
2018-11-11T16:59:14.716Z,98027.09
2018-11-11T17:01:44.151Z,98029.05
2018-11-11T17:04:13.804Z,98027.61
2018-11-11T17:06:43.229Z,98028.54
2018-11-11T17:09:14.575Z,98027.34
2018-11-11T17:11:43.979Z,98027.33
2018-11-11T17:14:13.545Z,98019.64
2018-11-11T17:16:42.923Z,98022.91
2018-11-11T17:19:12.694Z,98025.74
2018-11-11T17:21:42.057Z,98034.09
2018-11-11T17:24:11.413Z,98023.03
2018-11-11T17:26:40.823Z,98020.98
2018-11-11T17:29:10.303Z,98024.32
2018-11-11T17:31:40.114Z,98038.81
2018-11-11T17:34:09.428Z,98046.34
2018-11-11T17:36:38.919Z,98029.34
2018-11-11T17:39:11.201Z,98023.05
2018-11-11T17:41:40.904Z,98015.88
2018-11-11T17:44:10.339Z,98020.66
2018-11-11T17:46:39.742Z,98013.61
2018-11-11T17:49:09.289Z,98012.48
2018-11-11T17:51:38.711Z,98019.72
2018-11-11T17:54:08.229Z,98018.41
2018-11-11T17:56:37.717Z,98025.41
2018-11-11T17:59:07.221Z,98035.27
2018-11-11T18:01:36.726Z,98029.93
2018-11-11T18:04:06.815Z,98040.80
2018-11-11T18:06:36.342Z,98041.69
2018-11-11T18:09:09.551Z,98032.19
2018-11-11T18:11:39.665Z,98023.25
2018-11-11T18:14:09.647Z,98013.80
2018-11-11T18:16:39.179Z,98021.13
2018-11-11T18:19:08.616Z,98025.20
2018-11-11T18:21:38.803Z,98022.18
2018-11-11T18:24:08.203Z,98023.29
2018-11-11T18:26:37.863Z,98021.33
2018-11-11T18:29:07.419Z,98029.51
2018-11-11T18:31:36.821Z,98022.47
2018-11-11T18:34:06.544Z,98041.53
2018-11-11T18:36:35.992Z,98033.50
2018-11-11T18:39:08.755Z,98044.52
2018-11-11T18:41:38.128Z,97990.52
2018-11-11T18:44:07.828Z,98055.34
2018-11-11T18:46:37.883Z,98042.61
2018-11-11T18:49:08.570Z,98049.50
2018-11-11T18:51:38.421Z,98046.89
2018-11-11T18:54:08.005Z,98046.63
2018-11-11T18:56:37.488Z,98046.62
2018-11-11T18:59:07.267Z,98053.69
2018-11-11T19:01:36.657Z,98050.86
2018-11-11T19:04:06.686Z,98051.22
2018-11-11T19:06:36.228Z,98046.23
2018-11-11T19:09:09.415Z,98048.64
2018-11-11T19:11:38.922Z,98047.87
2018-11-11T19:14:08.849Z,98034.61
2018-11-11T19:16:38.651Z,98036.75
2018-11-11T19:19:07.945Z,98045.59
2018-11-11T19:21:37.557Z,98036.59
2018-11-11T19:24:07.132Z,98023.12
2018-11-11T19:26:37.690Z,98032.77
2018-11-11T19:29:07.450Z,98034.17
2018-11-11T19:31:37.103Z,98043.02
2018-11-11T19:34:06.654Z,98054.70
2018-11-11T19:36:36.178Z,98055.22
2018-11-11T19:39:08.946Z,98048.06
2018-11-11T19:41:38.660Z,98042.69
2018-11-11T19:44:08.416Z,98034.81
2018-11-11T19:46:38.243Z,98033.22
2018-11-11T19:49:08.250Z,98033.03
2018-11-11T19:51:37.934Z,98035.77
2018-11-11T19:54:07.455Z,98031.65
2018-11-11T19:56:37.285Z,98033.75
2018-11-11T19:59:07.886Z,98028.65
2018-11-11T20:01:38.285Z,98031.23
2018-11-11T20:04:08.802Z,98027.16
2018-11-11T20:06:38.849Z,98038.91
2018-11-11T20:09:11.004Z,98032.97
2018-11-11T20:11:40.948Z,98047.45
2018-11-11T20:14:10.595Z,98040.75
2018-11-11T20:16:40.271Z,98045.02
2018-11-11T20:19:09.925Z,98051.73
2018-11-11T20:21:39.832Z,98048.91
2018-11-11T20:24:10.109Z,98060.80
2018-11-11T20:26:39.887Z,98050.73
2018-11-11T20:29:09.739Z,98045.22
2018-11-11T20:31:39.747Z,98047.56
2018-11-11T20:34:09.449Z,98050.09
2018-11-11T20:36:39.067Z,98052.36
2018-11-11T20:39:11.919Z,98050.34
2018-11-11T20:41:41.549Z,97837.98
2018-11-11T20:44:10.964Z,98054.09
2018-11-11T20:46:40.352Z,98044.84
2018-11-11T20:49:09.760Z,98050.19
2018-11-11T20:51:39.267Z,98048.30
2018-11-11T20:54:08.670Z,98050.74
2018-11-11T20:56:38.229Z,98047.70
2018-11-11T20:59:07.572Z,98052.27
2018-11-11T21:01:37.178Z,98050.13
2018-11-11T21:04:06.687Z,98046.16
2018-11-11T21:06:36.185Z,98056.11
2018-11-11T21:09:09.411Z,98064.13
2018-11-11T21:11:39.151Z,98072.15
2018-11-11T21:14:09.027Z,98070.52
2018-11-11T21:16:38.293Z,98077.67
2018-11-11T21:19:08.315Z,98077.34
2018-11-11T21:21:37.819Z,98072.95
2018-11-11T21:24:07.222Z,98067.81
2018-11-11T21:26:36.555Z,98082.35
2018-11-11T21:29:06.127Z,98090.24
2018-11-11T21:31:35.529Z,98097.70
2018-11-11T21:34:04.952Z,98094.59
2018-11-11T21:36:34.327Z,98090.88
2018-11-11T21:39:04.600Z,98085.88
2018-11-11T21:41:33.955Z,98098.89
2018-11-11T21:44:03.357Z,98107.16
2018-11-11T21:46:32.708Z,98107.92
2018-11-11T21:49:02.160Z,98111.16
2018-11-11T21:51:31.459Z,98102.10
2018-11-11T21:54:00.833Z,98114.53
2018-11-11T21:56:30.370Z,98109.93
2018-11-11T21:58:59.872Z,98106.06
2018-11-11T22:01:29.173Z,98106.88
2018-11-11T22:03:58.415Z,98111.76
2018-11-11T22:06:27.974Z,98117.05
2018-11-11T22:08:57.501Z,98115.73
2018-11-11T22:11:26.943Z,98110.70
2018-11-11T22:13:56.432Z,98111.30
2018-11-11T22:16:25.887Z,98121.30
2018-11-11T22:18:55.210Z,98127.28
2018-11-11T22:21:24.752Z,98117.70
2018-11-11T22:23:56.140Z,98124.51
2018-11-11T22:26:26.055Z,98124.86
2018-11-11T22:28:55.403Z,98151.75
2018-11-11T22:31:24.757Z,98153.39
2018-11-11T22:33:54.158Z,98139.66
2018-11-11T22:36:23.502Z,98148.88
2018-11-11T22:38:52.856Z,98144.01
2018-11-11T22:41:22.365Z,98172.23
2018-11-11T22:43:51.864Z,98223.59
2018-11-11T22:46:21.169Z,98229.86
2018-11-11T22:48:50.754Z,98248.56
2018-11-11T22:51:20.599Z,98252.04
2018-11-11T22:53:50.235Z,98251.45
2018-11-11T22:56:19.697Z,98262.69
2018-11-11T22:58:49.114Z,98247.72
2018-11-11T23:01:19.403Z,98257.33
2018-11-11T23:03:48.975Z,98273.81
2018-11-11T23:06:18.690Z,98225.16
2018-11-11T23:08:48.345Z,98289.83
2018-11-11T23:11:18.355Z,98282.34
2018-11-11T23:13:47.765Z,98293.00
2018-11-11T23:16:17.274Z,98273.30
2018-11-11T23:18:46.669Z,98270.84
2018-11-11T23:21:16.231Z,98273.05
2018-11-11T23:23:45.578Z,98264.86
2018-11-11T23:26:14.870Z,98260.30
2018-11-11T23:28:44.069Z,98275.30
2018-11-11T23:31:13.488Z,98284.05
2018-11-11T23:33:43.529Z,98283.20
2018-11-11T23:36:13.431Z,98279.33
2018-11-11T23:38:42.947Z,98274.86
2018-11-11T23:41:12.308Z,98273.31
2018-11-11T23:43:41.919Z,98279.61
2018-11-11T23:46:11.323Z,98277.28
2018-11-11T23:48:40.819Z,98285.72
2018-11-11T23:51:10.330Z,98293.27
2018-11-11T23:53:39.741Z,98279.52
2018-11-11T23:56:09.234Z,98283.90
2018-11-11T23:58:38.656Z,98280.65
